Time;durP1;ratioP1;P1;durP2;ratioP2;P2;SDS_P1;SDS_P2;PMS_P1;PMS_P2;Temp;Humidity;BMP_temperature;BMP_pressure;BME280_temperature;BME280_humidity;BME280_pressure;Samples;Min_cycle;Max_cycle;Signal;HPM_P1;HPM_P2
2022/11/20 00:02:15;;;;;;;17.00;8.73;;;;;;;-1.53;100.00;100255.69;5044343;56;1142978;-80
2022/11/20 00:07:22;;;;;;;19.53;9.73;;;;;;;-1.51;100.00;100253.87;5105525;56;1141411;-80
2022/11/20 00:12:27;;;;;;;21.52;11.80;;;;;;;-1.51;100.00;100254.72;5124854;56;1141144;-79
2022/11/20 00:17:33;;;;;;;20.65;9.80;;;;;;;-1.52;100.00;100254.77;5039222;57;1143167;-79
2022/11/20 00:22:39;;;;;;;15.00;8.13;;;;;;;-1.52;100.00;100254.31;5128445;56;1141240;-80
2022/11/20 00:27:45;;;;;;;26.73;10.73;;;;;;;-1.51;100.00;100264.24;5129429;56;1141017;-80
2022/11/20 00:32:51;;;;;;;18.90;10.15;;;;;;;-1.48;100.00;100261.56;5128873;56;1143332;-80
2022/11/20 00:37:56;;;;;;;18.97;9.70;;;;;;;-1.49;100.00;100263.30;5075708;56;1143024;-80
2022/11/20 00:43:03;;;;;;;18.60;10.90;;;;;;;-1.51;100.00;100263.80;5044946;56;1141075;-80
2022/11/20 00:48:09;;;;;;;13.80;7.50;;;;;;;-1.52;100.00;100266.44;5044832;56;1143264;-81
2022/11/20 00:53:15;;;;;;;14.57;8.57;;;;;;;-1.52;100.00;100268.58;5048691;55;1140934;-80
2022/11/20 00:58:21;;;;;;;15.43;8.37;;;;;;;-1.54;100.00;100267.81;5055587;56;1140893;-80
2022/11/20 01:03:27;;;;;;;15.30;8.90;;;;;;;-1.54;100.00;100277.33;5115741;56;1140929;-80
2022/11/20 01:08:36;;;;;;;25.92;12.98;;;;;;;-1.53;100.00;100275.95;5139886;56;1140807;-81
2022/11/20 01:13:43;;;;;;;22.80;10.67;;;;;;;-1.54;100.00;100279.48;5138970;56;1143046;-80
2022/11/20 01:18:52;;;;;;;19.10;10.00;;;;;;;-1.56;100.00;100274.78;5139214;56;1142913;-80
2022/11/20 01:23:59;;;;;;;16.93;8.13;;;;;;;-1.55;100.00;100273.89;5139355;56;1142867;-80
2022/11/20 01:29:06;;;;;;;24.73;11.97;;;;;;;-1.58;100.00;100271.84;5139489;56;1142657;-80
2022/11/20 01:34:15;;;;;;;22.03;11.23;;;;;;;-1.58;100.00;100271.84;5139260;56;1143010;-80
2022/11/20 01:39:25;;;;;;;17.92;9.13;;;;;;;-1.59;100.00;100276.17;5127155;56;1143143;-81
2022/11/20 01:44:51;;;;;;;18.62;8.93;;;;;;;-1.58;100.00;100274.43;5125899;55;1140912;-80
2022/11/20 01:50:13;;;;;;;16.37;9.60;;;;;;;-1.56;100.00;100265.71;5139634;55;1140936;-80
2022/11/20 01:55:26;;;;;;;16.87;10.18;;;;;;;-1.57;100.00;100261.42;5126894;55;1141296;-81
2022/11/20 02:00:33;;;;;;;20.85;10.93;;;;;;;-1.58;100.00;100263.61;5105612;55;1143224;-81
2022/11/20 02:05:43;;;;;;;17.03;10.10;;;;;;;-1.57;100.00;100264.02;5139777;55;1142916;-81
2022/11/20 02:10:50;;;;;;;19.23;10.07;;;;;;;-1.56;100.00;100255.78;5136867;56;1239772;-81
2022/11/20 02:15:56;;;;;;;11.20;5.50;;;;;;;-1.53;100.00;100257.80;5139212;55;1143054;-80
2022/11/20 02:21:06;;;;;;;16.03;9.20;;;;;;;-1.49;100.00;100254.67;5139587;56;1141157;-80
2022/11/20 02:26:16;;;;;;;18.60;10.30;;;;;;;-1.48;100.00;100261.56;5119736;56;1140986;-80
2022/11/20 02:31:22;;;;;;;14.80;8.83;;;;;;;-1.46;100.00;100247.64;5139306;56;1143213;-81
2022/11/20 02:36:31;;;;;;;19.12;11.45;;;;;;;-1.46;100.00;100245.50;5144932;56;1141218;-81
2022/11/20 02:41:38;;;;;;;18.93;11.03;;;;;;;-1.46;100.00;100247.64;5155275;56;1143256;-80
2022/11/20 02:46:44;;;;;;;11.17;7.17;;;;;;;-1.43;100.00;100250.14;5155151;55;1143079;-80
2022/11/20 02:51:49;;;;;;;16.63;9.70;;;;;;;-1.40;100.00;100249.20;5155172;55;1140806;-80
2022/11/20 02:56:55;;;;;;;21.13;10.17;;;;;;;-1.42;100.00;100240.17;5155201;56;1140997;-80
2022/11/20 03:02:01;;;;;;;17.13;8.77;;;;;;;-1.42;100.00;100241.47;5154571;56;1142882;-80
2022/11/20 03:07:09;;;;;;;24.50;11.33;;;;;;;-1.43;100.00;100248.00;5155079;56;1141221;-81
2022/11/20 03:12:16;;;;;;;24.47;12.00;;;;;;;-1.45;100.00;100251.94;5154886;56;1143145;-80
2022/11/20 03:17:21;;;;;;;15.47;9.03;;;;;;;-1.46;100.00;100261.91;5155333;56;1143131;-80
2022/11/20 03:22:29;;;;;;;19.37;10.72;;;;;;;-1.44;100.00;100247.60;5089247;56;1148974;-80
2022/11/20 03:27:36;;;;;;;18.92;10.25;;;;;;;-1.42;100.00;100247.95;5069909;57;1143088;-80
2022/11/20 03:32:41;;;;;;;16.93;9.90;;;;;;;-1.46;100.00;100238.57;5069695;57;1143163;-80
2022/11/20 03:37:48;;;;;;;15.33;9.27;;;;;;;-1.37;100.00;100243.04;5115427;56;1141485;-80
2022/11/20 03:42:57;;;;;;;16.67;9.13;;;;;;;-1.36;100.00;100236.95;5114169;56;1141129;-81
2022/11/20 03:48:04;;;;;;;18.73;11.47;;;;;;;-1.42;100.00;100246.66;5146025;56;1141053;-82
2022/11/20 03:53:09;;;;;;;19.77;11.83;;;;;;;-1.45;100.00;100242.02;5154151;56;1143082;-80
2022/11/20 03:58:15;;;;;;;21.50;11.07;;;;;;;-1.45;100.00;100238.13;5154977;56;1143220;-80
2022/11/20 04:03:21;;;;;;;21.63;11.60;;;;;;;-1.42;100.00;100228.95;5154991;56;1142963;-80
2022/11/20 04:08:27;;;;;;;20.50;13.13;;;;;;;-1.42;100.00;100233.69;5155233;56;1148142;-81
2022/11/20 04:13:33;;;;;;;18.63;11.37;;;;;;;-1.40;100.00;100237.53;5154933;56;1143230;-80
2022/11/20 04:18:39;;;;;;;20.80;13.13;;;;;;;-1.40;100.00;100237.98;5154017;56;1143206;-80
2022/11/20 04:23:44;;;;;;;23.07;13.30;;;;;;;-1.41;100.00;100230.64;5068477;57;1142964;-80
2022/11/20 04:28:50;;;;;;;23.00;12.15;;;;;;;-1.42;100.00;100232.39;5089506;55;1142969;-80
2022/11/20 04:33:58;;;;;;;24.97;14.03;;;;;;;-1.39;100.00;100237.94;5121376;55;1143438;-80
2022/11/20 04:39:07;;;;;;;26.07;13.80;;;;;;;-1.37;100.00;100226.17;5135730;55;1143149;-80
2022/11/20 04:44:12;;;;;;;23.03;13.23;;;;;;;-1.33;100.00;100232.52;5107056;55;1142965;-80
2022/11/20 04:49:18;;;;;;;24.83;12.77;;;;;;;-1.33;100.00;100222.14;5154455;56;1142825;-80
2022/11/20 04:54:25;;;;;;;17.17;9.78;;;;;;;-1.33;100.00;100219.55;5142856;56;1142924;-80
2022/11/20 04:59:31;;;;;;;26.50;14.70;;;;;;;-1.39;100.00;100212.44;5152594;55;1140801;-79
2022/11/20 05:04:36;;;;;;;28.47;14.90;;;;;;;-1.32;100.00;100216.06;5122868;55;1142810;-80
2022/11/20 05:09:42;;;;;;;25.03;14.90;;;;;;;-1.31;100.00;100213.86;5070169;57;1142810;-79
2022/11/20 05:14:48;;;;;;;27.87;16.13;;;;;;;-1.32;100.00;100216.50;5113325;56;1142889;-80
2022/11/20 05:19:53;;;;;;;23.00;11.57;;;;;;;-1.31;100.00;100216.91;5133007;56;1143134;-79
2022/11/20 05:25:01;;;;;;;28.53;17.30;;;;;;;-1.30;100.00;100217.31;5069954;57;1143110;-80
2022/11/20 05:30:08;;;;;;;25.57;15.13;;;;;;;-1.29;100.00;100210.77;5069972;57;1142952;-80
2022/11/20 05:35:13;;;;;;;26.37;16.20;;;;;;;-1.27;100.00;100219.80;5077850;56;1142898;-79
2022/11/20 05:40:19;;;;;;;25.83;14.80;;;;;;;-1.26;100.00;100216.31;5155580;56;1142834;-80
2022/11/20 05:45:26;;;;;;;29.60;15.32;;;;;;;-1.31;100.00;100206.53;5160834;56;1142925;-80
2022/11/20 05:50:31;;;;;;;24.00;15.25;;;;;;;-1.31;100.00;100206.53;5151762;56;1143039;-80
2022/11/20 05:55:37;;;;;;;30.68;16.93;;;;;;;-1.26;100.00;100215.86;5151596;56;1143102;-79
2022/11/20 06:00:43;;;;;;;26.55;15.95;;;;;;;-1.26;100.00;100217.16;5151688;56;1143027;-80
2022/11/20 06:05:48;;;;;;;28.93;15.53;;;;;;;-1.23;100.00;100213.17;5151703;56;1142952;-79
2022/11/20 06:10:54;;;;;;;34.40;18.90;;;;;;;-1.23;100.00;100217.06;5151797;56;1142862;-80
2022/11/20 06:15:59;;;;;;;31.00;16.00;;;;;;;-1.20;100.00;100219.52;5151577;56;1142861;-80
2022/11/20 06:21:12;;;;;;;20.57;11.80;;;;;;;-1.16;100.00;100221.13;5108677;56;1142980;-80
2022/11/20 06:26:24;;;;;;;22.98;11.30;;;;;;;-1.11;100.00;100219.68;5066849;57;1143164;-79
2022/11/20 06:31:32;;;;;;;35.23;16.97;;;;;;;-1.11;100.00;100226.16;5067011;57;1142960;-80
2022/11/20 06:36:37;;;;;;;38.98;18.85;;;;;;;-1.14;100.00;100223.22;5066686;56;1143251;-80
2022/11/20 06:41:43;;;;;;;32.43;15.70;;;;;;;-1.10;100.00;100217.48;5140586;56;1147660;-80
2022/11/20 06:46:50;;;;;;;33.87;16.40;;;;;;;-1.10;100.00;100220.08;5152398;56;1143020;-80
2022/11/20 06:51:55;;;;;;;31.20;17.13;;;;;;;-1.11;100.00;100211.44;5146969;56;1142836;-80
2022/11/20 06:57:01;;;;;;;25.40;14.38;;;;;;;-1.14;100.00;100215.44;5152604;56;1143272;-79
2022/11/20 07:02:11;;;;;;;26.87;14.07;;;;;;;-1.14;100.00;100215.44;5152733;56;1143122;-79
2022/11/20 07:07:17;;;;;;;26.70;15.43;;;;;;;-1.15;100.00;100216.33;5141231;55;1142999;-78
2022/11/20 07:12:23;;;;;;;28.47;16.00;;;;;;;-1.15;100.00;100209.84;5074038;56;1142945;-78
2022/11/20 07:17:29;;;;;;;27.67;14.97;;;;;;;-1.13;100.00;100209.80;5083309;56;1143073;-79
2022/11/20 07:22:34;;;;;;;32.88;18.45;;;;;;;-1.13;100.00;100205.91;5133700;55;1143011;-78
2022/11/20 07:27:40;;;;;;;40.67;21.45;;;;;;;-1.15;100.00;100199.47;5141157;56;1143195;-78
2022/11/20 07:32:53;;;;;;;28.40;15.35;;;;;;;-1.17;100.00;100201.27;5067854;57;1143043;-81
2022/11/20 07:37:59;;;;;;;26.57;13.30;;;;;;;-1.19;100.00;100191.39;4996284;57;1246608;-81
2022/11/20 07:43:05;;;;;;;28.33;17.17;;;;;;;-1.17;100.00;100189.59;5147148;55;1143147;-80
2022/11/20 07:48:11;;;;;;;30.73;15.60;;;;;;;-1.16;100.00;100186.55;5152568;56;1143043;-81
2022/11/20 07:53:20;;;;;;;25.63;13.17;;;;;;;-1.16;100.00;100187.84;5151798;55;1142995;-81
2022/11/20 07:58:24;;;;;;;33.00;15.47;;;;;;;-1.17;100.00;100191.33;5141744;56;1143311;-77
2022/11/20 08:03:29;;;;;;;24.37;12.67;;;;;;;-1.17;100.00;100185.70;5141120;56;1143221;-79
2022/11/20 08:08:35;;;;;;;32.40;16.95;;;;;;;-1.15;100.00;100186.49;5141683;55;1143142;-78
2022/11/20 08:19:05;;;;;;;24.90;14.77;;;;;;;-1.09;100.00;100186.29;5141769;56;1143036;-82
2022/11/20 08:24:11;;;;;;;29.07;16.00;;;;;;;-1.11;100.00;100176.86;5142306;56;1143093;-80
2022/11/20 08:29:17;;;;;;;33.53;16.90;;;;;;;-1.09;100.00;100177.66;5144102;55;1143109;-79
2022/11/20 08:34:22;;;;;;;54.70;21.90;;;;;;;-1.08;100.00;100176.76;5066580;57;1143147;-80
2022/11/20 08:39:29;;;;;;;104.25;45.90;;;;;;;-1.11;100.00;100173.81;5165294;55;1143065;-81
2022/11/20 08:44:34;;;;;;;64.80;28.73;;;;;;;-1.11;100.00;100160.84;5051809;57;1145095;-79
2022/11/20 08:49:40;;;;;;;75.40;36.80;;;;;;;-1.12;100.00;100162.19;5069360;57;1143013;-82
2022/11/20 08:54:46;;;;;;;42.40;17.48;;;;;;;-1.10;100.00;100161.23;5143096;56;1143069;-79
2022/11/20 08:59:52;;;;;;;24.67;13.73;;;;;;;-1.02;100.00;100171.78;5155124;56;1143045;-81
2022/11/20 09:04:57;;;;;;;35.03;17.13;;;;;;;-1.09;100.00;100163.39;5155233;55;1142962;-79
2022/11/20 09:10:04;;;;;;;34.73;15.70;;;;;;;-1.09;100.00;100164.23;5098679;56;1142985;-83
2022/11/20 09:15:11;;;;;;;37.20;15.87;;;;;;;-1.12;100.00;100153.95;5069593;57;1142824;-80
2022/11/20 09:20:17;;;;;;;66.63;27.70;;;;;;;-1.17;100.00;100155.86;5099220;56;1143016;-81
2022/11/20 09:25:22;;;;;;;143.43;67.33;;;;;;;-1.14;100.00;100144.53;5155084;56;1142764;-79
2022/11/20 09:30:28;;;;;;;130.33;55.90;;;;;;;-1.07;100.00;100142.94;5151668;56;1144952;-79
2022/11/20 09:35:35;;;;;;;64.37;31.50;;;;;;;-0.95;100.00;100150.75;5142893;56;1145128;-79
2022/11/20 09:40:48;;;;;;;39.60;18.47;;;;;;;-0.94;100.00;100145.96;5137197;56;1142932;-80
2022/11/20 09:46:07;;;;;;;40.50;17.25;;;;;;;-0.88;100.00;100146.17;5144134;55;1142937;-82
2022/11/20 09:51:48;;;;;;;60.77;24.80;;;;;;;-0.84;100.00;100137.38;5101282;55;1142923;-80
2022/11/20 09:57:04;;;;;;;49.33;20.97;;;;;;;-0.80;100.00;100138.96;5103507;55;1143014;-81
2022/11/20 10:02:38;;;;;;;34.00;16.30;;;;;;;-0.72;100.00;100130.42;5096918;55;1143431;-82
2022/11/20 10:08:06;;;;;;;33.50;15.90;;;;;;;-0.63;100.00;100134.44;5028249;57;1142987;-81
2022/11/20 10:13:25;;;;;;;39.40;17.37;;;;;;;-0.58;100.00;100130.73;5080218;56;1143080;-80
2022/11/20 10:19:00;;;;;;;31.33;16.47;;;;;;;-0.54;100.00;100123.69;5074753;56;1143298;-82
2022/11/20 10:24:16;;;;;;;59.20;28.27;;;;;;;-0.50;100.00;100126.11;5137290;56;1143211;-78
2022/11/20 10:29:27;;;;;;;67.83;38.50;;;;;;;-0.49;100.00;100127.81;5133452;56;1143064;-80
2022/11/20 10:34:55;;;;;;;35.33;17.20;;;;;;;-0.47;100.00;100121.26;5133975;56;1143297;-81
2022/11/20 10:40:20;;;;;;;39.17;19.17;;;;;;;-0.45;100.00;100115.07;5086018;55;1143178;-79
2022/11/20 10:45:33;;;;;;;42.63;23.23;;;;;;;-0.43;100.00;100115.86;5061696;56;1142880;-84
2022/11/20 10:50:43;;;;;;;39.92;18.30;;;;;;;-0.36;100.00;100113.88;5133787;56;1142902;-82
2022/11/20 10:55:56;;;;;;;89.47;26.42;;;;;;;-0.31;100.00;100115.02;5109645;56;1143256;-80
2022/11/20 11:01:17;;;;;;;56.17;25.00;;;;;;;-0.25;100.00;100106.95;5058621;56;1142899;-82
2022/11/20 11:06:41;;;;;;;58.40;22.37;;;;;;;-0.20;100.00;100113.67;5069206;56;1142888;-82
2022/11/20 11:11:47;;;;;;;74.65;27.87;;;;;;;-0.14;100.00;100108.20;5031800;57;1143005;-80
2022/11/20 11:16:56;;;;;;;86.93;27.40;;;;;;;-0.14;100.00;100108.20;4997112;56;1142986;-83
2022/11/20 11:22:04;;;;;;;97.13;33.33;;;;;;;-0.12;100.00;100108.14;5070468;55;1142968;-81
2022/11/20 11:27:17;;;;;;;60.47;22.50;;;;;;;-0.13;100.00;100102.55;5000638;57;1143011;-80
2022/11/20 11:32:23;;;;;;;62.03;22.37;;;;;;;-0.11;100.00;100108.09;5109566;55;1143222;-82
2022/11/20 11:37:36;;;;;;;69.90;33.75;;;;;;;-0.03;100.00;100099.55;5128675;56;1143133;-79
2022/11/20 11:42:49;;;;;;;36.80;17.30;;;;;;;0.06;100.00;100100.06;5128969;56;1143045;-81
2022/11/20 11:47:58;;;;;;;47.58;23.85;;;;;;;0.13;100.00;100102.36;5128980;56;1140968;-79
2022/11/20 11:53:22;;;;;;;32.77;16.10;;;;;;;0.20;100.00;100095.13;5133057;56;1141110;-81
2022/11/20 11:58:49;;;;;;;29.25;14.10;;;;;;;0.21;100.00;100089.87;5155548;55;1141232;-79
2022/11/20 12:04:32;;;;;;;45.60;19.87;;;;;;;0.24;100.00;100080.64;5148087;55;1141173;-80
2022/11/20 12:09:43;;;;;;;47.53;20.70;;;;;;;0.30;100.00;100076.49;5069255;56;1141289;-69
2022/11/20 12:14:52;;;;;;;36.42;16.95;;;;;;;0.36;100.00;100074.06;5057163;56;1140984;-64
2022/11/20 12:19:58;;;;;;;53.00;20.68;;;;;;;0.45;100.00;100065.88;5093750;56;1140990;-66
2022/11/20 12:25:28;;;;;;;48.40;20.70;;;;;;;0.63;100.00;100062.45;5150982;55;1141059;-66
2022/11/20 12:30:38;;;;;;;41.87;18.77;;;;;;;0.58;100.00;100068.33;5118889;55;1141095;-66
2022/11/20 12:35:51;;;;;;;42.10;16.35;;;;;;;0.50;100.00;100063.91;5149723;55;1141489;-67
2022/11/20 12:45:09;;;;;;;39.05;17.37;;;;;;;0.46;100.00;100066.73;5065985;57;1140814;-69
2022/11/20 12:46:40;;;;;;;47.20;17.93;;;;;;;0.39;100.00;100054.43;5115700;55;1140917;-67
2022/11/20 12:52:11;;;;;;;44.40;20.62;;;;;;;0.40;100.00;100057.87;5147109;55;1141262;-67
2022/11/20 12:57:27;;;;;;;47.50;20.13;;;;;;;0.42;100.00;100043.90;5143037;54;1141016;-70
2022/11/20 13:02:50;;;;;;;38.45;19.05;;;;;;;0.46;100.00;100046.73;5146732;55;1141191;-68
2022/11/20 13:07:58;;;;;;;48.93;19.77;;;;;;;0.44;100.00;100034.27;5149788;55;1141204;-63
2022/11/20 13:13:28;;;;;;;35.10;17.50;;;;;;;0.47;100.00;100035.87;5139734;56;1140848;-67
2022/11/20 13:18:39;;;;;;;40.45;16.23;;;;;;;0.46;100.00;100035.52;5013503;57;1141001;-68
2022/11/20 13:23:45;;;;;;;31.17;12.82;;;;;;;0.39;100.00;100027.57;5095736;55;1140841;-68
2022/11/20 13:29:10;;;;;;;100.27;35.67;;;;;;;0.24;100.00;100031.23;5055053;57;1140925;-67
2022/11/20 13:34:27;;;;;;;42.37;20.53;;;;;;;0.19;100.00;100016.27;5053696;57;1143033;-66
2022/11/20 13:39:37;;;;;;;41.87;21.00;;;;;;;0.18;100.00;100015.03;5043960;56;1140949;-67
2022/11/20 13:44:49;;;;;;;44.67;18.45;;;;;;;0.15;100.00;100010.84;4892567;57;1141053;-69
2022/11/20 13:49:58;;;;;;;64.10;25.70;;;;;;;0.19;100.00;100014.13;5037789;55;1140890;-65
2022/11/20 13:55:20;;;;;;;48.83;20.77;;;;;;;0.16;100.00;100009.05;5068515;55;1141319;-68
2022/11/20 14:00:27;;;;;;;46.60;20.83;;;;;;;0.16;100.00;100010.34;5085872;56;1140923;-65
2022/11/20 14:05:40;;;;;;;59.73;23.33;;;;;;;0.12;100.00;100012.27;5113381;56;1141023;-67
2022/11/20 14:10:45;;;;;;;51.67;18.87;;;;;;;0.08;100.00;100008.09;5091714;56;1140750;-69
2022/11/20 14:15:55;;;;;;;79.62;24.82;;;;;;;0.06;100.00;100008.61;5109048;56;1141311;-67
2022/11/20 14:21:05;;;;;;;74.47;30.57;;;;;;;0.04;100.00;100013.48;5105721;56;1141365;-67
2022/11/20 14:26:15;;;;;;;89.80;31.57;;;;;;;0.03;100.00;100003.99;5078989;56;1141070;-65
2022/11/20 14:31:24;;;;;;;107.30;36.63;;;;;;;0.00;100.00;100005.80;5078016;56;1140976;-65
2022/11/20 14:36:30;;;;;;;93.75;39.33;;;;;;;0.03;100.00;99998.34;5091148;55;1142952;-67
2022/11/20 14:41:36;;;;;;;59.23;34.83;;;;;;;0.05;100.00;99993.92;5113345;55;1138688;-63
2022/11/20 14:46:41;;;;;;;50.65;26.12;;;;;;;0.04;100.00;99992.69;5133367;54;1138670;-65
2022/11/20 14:51:47;;;;;;;93.33;41.57;;;;;;;0.02;100.00;99987.55;5130991;56;1138768;-67
2022/11/20 14:57:02;;;;;;;62.07;23.87;;;;;;;0.03;100.00;99987.09;5121311;56;1138617;-63
2022/11/20 15:02:13;;;;;;;61.13;27.03;;;;;;;-0.02;100.00;99985.56;5138307;55;1138770;-67
2022/11/20 15:07:29;;;;;;;60.52;25.92;;;;;;;-0.06;100.00;99980.09;5147171;56;1140885;-61
2022/11/20 15:12:48;;;;;;;91.67;36.43;;;;;;;-0.09;100.00;99978.92;5145992;56;1140786;-65
2022/11/20 15:17:54;;;;;;;75.37;36.30;;;;;;;-0.10;100.00;99969.43;5146070;56;1141033;-65
2022/11/20 15:22:59;;;;;;;65.83;31.50;;;;;;;-0.10;100.00;99976.38;5147411;55;1140820;-64
2022/11/20 15:28:08;;;;;;;82.70;34.93;;;;;;;-0.13;100.00;99964.36;5064715;57;1140942;-63
2022/11/20 15:33:15;;;;;;;71.90;29.05;;;;;;;-0.15;100.00;99970.52;5031482;57;1141098;-65
2022/11/20 15:38:21;;;;;;;67.62;29.95;;;;;;;-0.17;100.00;99974.97;5005539;57;1140951;-65
2022/11/20 15:43:27;;;;;;;192.27;83.93;;;;;;;-0.21;100.00;99973.40;5110566;55;1140941;-64
2022/11/20 15:48:36;;;;;;;65.17;27.67;;;;;;;-0.23;100.00;99968.72;5124004;55;1143133;-66
2022/11/20 15:53:43;;;;;;;54.25;25.17;;;;;;;-0.25;100.00;99963.58;5069165;56;1141037;-68
2022/11/20 15:58:48;;;;;;;34.65;17.90;;;;;;;-0.26;100.00;99955.84;5054926;57;1141472;-68
2022/11/20 16:03:54;;;;;;;39.07;20.30;;;;;;;-0.28;100.00;99959.81;5122209;56;1141067;-66
2022/11/20 16:09:00;;;;;;;45.43;20.17;;;;;;;-0.30;100.00;99965.52;5098614;56;1141165;-69
2022/11/20 16:19:29;;;;;;;47.10;22.50;;;;;;;-0.38;100.00;99954.16;5138141;56;1141101;-65
2022/11/20 16:24:35;;;;;;;149.27;66.00;;;;;;;-0.37;100.00;99952.41;5139161;56;1141122;-65
2022/11/20 16:29:40;;;;;;;193.60;79.20;;;;;;;-0.32;100.00;99951.78;5132532;55;1142828;-67
2022/11/20 16:34:46;;;;;;;79.50;40.98;;;;;;;-0.31;100.00;99947.42;5127777;56;1142911;-68
2022/11/20 16:39:52;;;;;;;101.85;47.95;;;;;;;-0.30;100.00;99947.33;5132202;56;1140919;-66
2022/11/20 16:44:57;;;;;;;203.70;74.03;;;;;;;-0.26;100.00;99938.50;5138517;56;1143068;-65
2022/11/20 16:50:05;;;;;;;122.75;48.50;;;;;;;-0.23;100.00;99942.28;5138692;56;1143130;-66
2022/11/20 16:55:10;;;;;;;116.00;44.90;;;;;;;-0.22;100.00;99935.33;5139167;56;1142999;-69
2022/11/20 17:00:16;;;;;;;201.77;59.17;;;;;;;-0.22;100.00;99938.77;5139424;56;1142948;-68
2022/11/20 17:05:22;;;;;;;236.23;70.23;;;;;;;-0.22;100.00;99932.73;5154049;56;1143194;-64
2022/11/20 17:10:28;;;;;;;565.73;261.87;;;;;;;-0.22;100.00;99933.58;5155826;56;1143052;-63
2022/11/20 17:15:34;;;;;;;153.25;71.97;;;;;;;-0.22;100.00;99924.48;5153469;55;1145044;-70
2022/11/20 17:20:40;;;;;;;142.37;56.17;;;;;;;-0.21;100.00;99922.27;5155743;55;1142984;-69
2022/11/20 17:25:45;;;;;;;153.00;50.43;;;;;;;-0.24;100.00;99922.86;5140717;55;1142999;-64
2022/11/20 17:30:52;;;;;;;150.55;50.12;;;;;;;-0.25;100.00;99922.01;5149516;55;1143148;-68
2022/11/20 17:35:58;;;;;;;96.50;34.95;;;;;;;-0.27;100.00;99910.83;5154640;55;1143328;-66
2022/11/20 17:41:07;;;;;;;153.03;51.93;;;;;;;-0.31;100.00;99912.35;5138783;55;1140941;-67
2022/11/20 17:46:17;;;;;;;115.77;44.90;;;;;;;-0.36;100.00;99917.73;5120776;55;1143076;-66
2022/11/20 17:51:29;;;;;;;122.50;43.58;;;;;;;-0.37;100.00;99912.15;5138158;55;1142940;-66
2022/11/20 18:01:59;;;;;;;;;;;;;;;-0.34;100.00;99903.38;5146026;55;1142907;-68
2022/11/20 18:07:05;;;;;;;143.27;62.33;;;;;;;-0.33;100.00;99908.52;5124452;55;974123;-65
2022/11/20 18:12:11;;;;;;;136.77;57.13;;;;;;;-0.33;100.00;99900.72;5119411;55;1140743;-67
2022/11/20 18:17:17;;;;;;;96.20;41.13;;;;;;;-0.27;100.00;99895.70;5118249;55;1142941;-69
2022/11/20 18:22:23;;;;;;;137.23;51.90;;;;;;;-0.22;100.00;99893.75;5108479;55;1140783;-67
2022/11/20 18:27:28;;;;;;;90.20;37.43;;;;;;;-0.20;100.00;99891.94;5132727;55;1142968;-67
2022/11/20 18:32:35;;;;;;;100.20;42.63;;;;;;;-0.29;100.00;99897.52;5153255;55;1140943;-67
2022/11/20 18:37:41;;;;;;;71.63;28.93;;;;;;;-0.38;100.00;99890.97;5153302;55;1154013;-68
2022/11/20 18:48:11;;;;;;;79.77;33.90;;;;;;;-0.43;100.00;99890.31;5138752;55;1140990;-66
2022/11/20 18:53:17;;;;;;;75.28;31.27;;;;;;;-0.49;100.00;99899.69;5085285;55;1140895;-66
2022/11/20 18:58:22;;;;;;;89.17;33.13;;;;;;;-0.49;100.00;99899.69;5103372;55;1140916;-67
2022/11/20 19:03:28;;;;;;;103.50;45.17;;;;;;;-0.56;100.00;99904.28;5113339;55;1140950;-68
2022/11/20 19:08:35;;;;;;;117.00;51.57;;;;;;;-0.63;100.00;99901.56;5109140;55;1143092;-67
2022/11/20 19:13:41;;;;;;;65.00;29.53;;;;;;;-0.63;100.00;99907.21;5133848;55;1143175;-68
2022/11/20 19:18:48;;;;;;;69.27;31.45;;;;;;;-0.65;100.00;99899.94;5150252;56;1140999;-64
2022/11/20 19:23:57;;;;;;;59.38;24.75;;;;;;;-0.66;100.00;99903.44;5072220;55;1148975;-64
2022/11/20 19:29:04;;;;;;;86.35;33.15;;;;;;;-0.68;100.00;99894.86;5077233;56;1140919;-66
2022/11/20 19:34:11;;;;;;;67.43;28.37;;;;;;;-0.71;100.00;99890.19;5067013;55;1140969;-66
2022/11/20 19:39:17;;;;;;;54.97;25.17;;;;;;;-0.69;100.00;99885.38;5146945;55;1140930;-66
2022/11/20 19:44:23;;;;;;;51.40;24.60;;;;;;;-0.70;100.00;99883.23;5155300;55;1141045;-62
2022/11/20 19:49:29;;;;;;;55.13;23.27;;;;;;;-0.67;100.00;99883.57;5153157;56;1140960;-62
2022/11/20 19:54:34;;;;;;;47.77;22.13;;;;;;;-0.65;100.00;99879.16;5153101;56;1140883;-68
2022/11/20 19:59:40;;;;;;;55.77;25.40;;;;;;;-0.66;100.00;99877.47;5070847;56;1236588;-68
2022/11/20 20:04:46;;;;;;;62.60;28.80;;;;;;;-0.71;100.00;99875.91;5067882;57;1141033;-70
2022/11/20 20:09:52;;;;;;;55.17;25.02;;;;;;;-0.74;100.00;99876.02;5107334;56;1140926;-62
2022/11/20 20:14:57;;;;;;;64.97;29.77;;;;;;;-0.77;100.00;99877.92;5153280;55;1140945;-65
2022/11/20 20:20:03;;;;;;;59.85;28.47;;;;;;;-0.78;100.00;99874.94;5145313;55;1140943;-66
2022/11/20 20:25:09;;;;;;;54.27;24.53;;;;;;;-0.83;100.00;99872.52;5070436;57;1140863;-68
2022/11/20 20:30:15;;;;;;;60.77;27.60;;;;;;;-0.83;100.00;99872.52;5070993;57;1141110;-67
2022/11/20 20:35:21;;;;;;;86.25;43.08;;;;;;;-0.86;100.00;99870.05;5080571;56;1141098;-67
2022/11/20 20:40:27;;;;;;;89.17;39.77;;;;;;;-0.87;100.00;99876.14;5155900;56;1140901;-65
2022/11/20 20:45:33;;;;;;;171.17;78.87;;;;;;;-0.87;100.00;99875.30;5152323;56;1140841;-68
2022/11/20 20:50:38;;;;;;;107.37;48.37;;;;;;;-0.87;100.00;99868.81;5128295;55;1143222;-68
2022/11/20 20:55:55;;;;;;;63.57;27.47;;;;;;;-0.85;100.00;99865.70;5076795;56;1143199;-67
2022/11/20 21:01:03;;;;;;;62.07;26.30;;;;;;;-0.89;100.00;99869.33;5131365;55;1140834;-64
2022/11/20 21:06:11;;;;;;;57.47;26.70;;;;;;;-0.94;100.00;99869.53;5147112;55;1140932;-65
2022/11/20 21:11:19;;;;;;;60.53;27.00;;;;;;;-1.00;100.00;99878.02;5151586;54;1140909;-67
2022/11/20 21:16:25;;;;;;;61.57;29.60;;;;;;;-1.07;100.00;99886.52;5133098;55;1140995;-68
2022/11/20 21:26:55;;;;;;;71.42;31.37;;;;;;;-1.18;100.00;99886.08;5068573;57;1141089;-65
2022/11/20 21:32:00;;;;;;;230.83;88.45;;;;;;;-1.20;100.00;99885.28;5068055;57;1141075;-64
2022/11/20 21:37:06;;;;;;;104.30;48.27;;;;;;;-1.18;100.00;99884.33;5098086;56;1142950;-68
2022/11/20 21:42:13;;;;;;;81.33;36.97;;;;;;;-1.06;100.00;99873.90;5152103;56;1143045;-66
2022/11/20 21:47:19;;;;;;;117.40;47.87;;;;;;;-1.01;100.00;99865.48;5153262;56;1140893;-66
2022/11/20 21:52:24;;;;;;;97.40;43.33;;;;;;;-1.01;100.00;99869.83;5152731;56;1143091;-65
2022/11/20 21:57:34;;;;;;;105.53;47.13;;;;;;;-1.04;100.00;99876.44;5153303;56;1140964;-64
2022/11/20 22:02:40;;;;;;;129.47;55.80;;;;;;;-1.12;100.00;99870.28;5153103;56;1142973;-68
2022/11/20 22:07:46;;;;;;;92.77;41.43;;;;;;;-1.08;100.00;99874.45;5145132;55;1143081;-67
2022/11/20 22:18:13;;;;;;;142.83;61.73;;;;;;;-1.15;100.00;99880.32;5060672;56;1141035;-67
2022/11/20 22:23:19;;;;;;;127.50;57.17;;;;;;;-1.19;100.00;99864.47;5154849;56;1142845;-67
2022/11/20 22:28:24;;;;;;;114.40;49.80;;;;;;;-1.18;100.00;99862.27;5155217;56;1143019;-68
2022/11/20 22:33:32;;;;;;;101.05;44.10;;;;;;;-1.21;100.00;99855.91;5154906;56;1142856;-62
2022/11/20 22:38:39;;;;;;;111.23;46.27;;;;;;;-1.25;100.00;99851.77;5129068;56;1142936;-69
2022/11/20 22:43:45;;;;;;;92.70;35.13;;;;;;;-1.28;100.00;99857.52;5146277;56;1143095;-65
2022/11/20 22:48:54;;;;;;;86.33;34.90;;;;;;;-1.32;100.00;99862.43;5146483;56;1140926;-66
2022/11/20 22:54:02;;;;;;;86.28;37.78;;;;;;;-1.45;100.00;99863.37;5146495;55;1140760;-65
2022/11/20 22:59:08;;;;;;;92.53;40.43;;;;;;;-1.50;100.00;99853.62;5146406;56;1140802;-65
2022/11/20 23:04:15;;;;;;;98.23;39.80;;;;;;;-1.47;100.00;99848.32;5146132;56;1140928;-66
2022/11/20 23:09:20;;;;;;;93.23;40.17;;;;;;;-1.50;100.00;99845.39;5149842;56;1140877;-64
2022/11/20 23:14:26;;;;;;;74.47;32.67;;;;;;;-1.49;100.00;99844.94;5107897;56;1141013;-67